Flight Track Log - Related Links

Times and Time Zones

All times are in EDT time to prevent confusion due to time zone crossing. See the SWA310 flight status page for this flight to view local times or setup timezone preferences in your user account.


Time Position Orientation Groundspeed Altitude Reporting Facility
EDT Latitude Longitude Course Direction KTS MPH feet Rate Location/Type
Thu 02:43:28 PM 39.9167 -104.7500 285° West 226 260 7,500  Level Denver TRACON
Thu 02:44:22 PM 39.9333 -104.8333 285° West 251 289 9,900 2,139 Climbing Denver TRACON
Thu 02:45:09 PM 39.9358 -104.9072 273° West 287 330 11,100 2,532 Climbing Denver Center
Thu 02:46:11 PM 39.9253 -105.0200 263° West 293 337 14,500 2,952 Climbing Denver Center
Thu 02:47:13 PM 39.9153 -105.1286 263° West 301 346 17,200 2,274 Climbing Denver Center
Thu 02:48:15 PM 39.9033 -105.2564 263° West 329 379 19,200 1,984 Climbing Denver Center
Thu 02:49:17 PM 39.8925 -105.3844 264° West 355 409 21,300 1,839 Climbing Denver Center
Thu 02:50:19 PM 39.8806 -105.5183 263° West 373 429 23,000 1,113 Climbing Denver Center
Thu 02:51:21 PM 39.8689 -105.6353 263° West 384 442 23,600 1,258 Climbing Denver Center
Thu 02:52:23 PM 39.8533 -105.8133 264° West 419 482 25,600 1,790 Climbing Denver Center
Thu 02:53:25 PM 39.8381 -105.9625 262° West 417 480 27,300 1,597 Climbing Denver Center
Thu 02:54:27 PM 39.8244 -106.1203 264° West 437 503 28,900 1,694 Climbing Denver Center
Thu 02:55:29 PM 39.8081 -106.3136 264° West 449 517 30,800 1,561 Climbing Denver Center
Thu 02:56:30 PM 39.7964 -106.4431 263° West 453 521 32,100 1,500 Climbing Denver Center
Thu 02:57:33 PM 39.7789 -106.6364 263° West 452 520 33,900 1,584 Climbing Denver Center
Thu 02:58:35 PM 39.7750 -106.7972 268° West 450 518 35,400 1,355 Climbing Denver Center
Thu 02:59:37 PM 39.7697 -106.9628 268° West 453 521 36,700 1,073 Climbing Denver Center
Thu 03:00:38 PM 39.7683 -107.0867 269° West 448 516 37,600 629 Climbing Denver Center
Thu 03:01:41 PM 39.7536 -107.2936 265° West 443 510 38,000 192 Climbing Denver Center
Thu 03:02:43 PM 39.7317 -107.4711 261° West 446 513 38,000  Level Denver Center
Thu 03:03:45 PM 39.7139 -107.6214 261° West 443 510 38,000  Level Denver Center
Thu 03:04:47 PM 39.6931 -107.7978 261° West 440 506 38,000  Level Denver Center
Thu 03:06:01 PM 39.6733 -107.9492 260° West 443 510 38,000  Level Denver Center
Thu 03:07:37 PM 39.6392 -108.2247 261° West 442 509 38,000  Level Salt Lake Center
Thu 03:08:39 PM 39.6164 -108.3994 260° West 441 507 38,000  Level Salt Lake Center
Thu 03:09:41 PM 39.5964 -108.5506 260° West 442 509 38,000  Level Salt Lake Center
Thu 03:10:43 PM 39.5722 -108.7319 260° West 453 521 38,000  Level Salt Lake Center
Thu 03:11:45 PM 39.5497 -108.8939 260° West 458 527 38,000  Level Salt Lake Center
Thu 03:12:47 PM 39.5311 -109.0464 261° West 447 514 38,000  Level Salt Lake Center
Thu 03:13:49 PM 39.5075 -109.2228 260° West 445 512 38,000  Level Salt Lake Center
Thu 03:14:51 PM 39.4869 -109.3736 260° West 445 512 38,000  Level Salt Lake Center
Thu 03:15:53 PM 39.4625 -109.5500 260° West 444 511 38,000  Level Salt Lake Center
Thu 03:16:55 PM 39.4422 -109.7011 260° West 446 513 38,000  Level Salt Lake Center
Thu 03:17:57 PM 39.4164 -109.8756 259° West 442 509 38,000  Level Salt Lake Center
Thu 03:18:59 PM 39.3961 -110.0261 260° West 444 511 38,000  Level Salt Lake Center
Thu 03:20:01 PM 39.3706 -110.2000 259° West 441 507 38,000  Level Salt Lake Center
Thu 03:21:03 PM 39.3483 -110.3489 259° West 440 506 38,000  Level Salt Lake Center
Thu 03:22:05 PM 39.3231 -110.5231 259° West 441 507 38,000  Level Salt Lake Center
Thu 03:23:07 PM 39.3017 -110.6728 260° West 442 509 38,000  Level Salt Lake Center
Thu 03:24:09 PM 39.2800 -110.8225 259° West 444 511 38,000  Level Salt Lake Center
Thu 03:25:11 PM 39.2525 -110.9969 259° West 443 510 38,000  Level Salt Lake Center
Thu 03:26:13 PM 39.2289 -111.1467 259° West 445 512 38,000  Level Salt Lake Center
Thu 03:27:15 PM 39.2033 -111.3203 259° West 445 512 38,000  Level Salt Lake Center
Thu 03:28:17 PM 39.1792 -111.4761 259° West 446 513 38,000  Level Salt Lake Center
Thu 03:29:19 PM 39.1539 -111.6306 258° West 443 510 38,000  Level Salt Lake Center
Thu 03:30:21 PM 39.1303 -111.7853 259° West 443 510 38,000  Level Salt Lake Center
Thu 03:31:23 PM 39.0994 -111.9689 258° West 439 505 38,000  Level Salt Lake Center
Thu 03:32:25 PM 39.0747 -112.1231 258° West 440 506 38,000  Level Salt Lake Center
Thu 03:33:27 PM 39.0506 -112.2753 258° West 437 503 38,000  Level Salt Lake Center
Thu 03:34:29 PM 39.0253 -112.4278 258° West 438 504 38,000  Level Salt Lake Center
Thu 03:35:32 PM 38.9994 -112.5797 258° West 438 504 38,000  Level Salt Lake Center
Thu 03:36:34 PM 38.9750 -112.7317 258° West 437 503 38,000  Level Salt Lake Center
Thu 03:37:36 PM 38.9428 -112.9136 257° West 437 503 38,000  Level Salt Lake Center
Thu 03:38:38 PM 38.9169 -113.0658 258° West 438 504 38,000  Level Salt Lake Center
Thu 03:39:40 PM 38.8903 -113.2186 257° West 440 506 38,000  Level Salt Lake Center
Thu 03:40:42 PM 38.8633 -113.3719 257° West 441 507 38,000  Level Salt Lake Center
Thu 03:41:44 PM 38.8369 -113.5214 257° West 433 498 38,000  Level Salt Lake Center
Thu 03:42:46 PM 38.8053 -113.7031 257° West 436 502 38,000  Level Salt Lake Center
Thu 03:43:48 PM 38.7786 -113.8508 257° West 431 496 38,000  Level Salt Lake Center
Thu 03:44:50 PM 38.7531 -113.9994 258° West 428 493 38,000  Level Salt Lake Center
Thu 03:45:52 PM 38.7256 -114.1486 257° West 431 496 38,000  Level Salt Lake Center
Thu 03:46:54 PM 38.6983 -114.2956 257° West 429 494 38,000  Level Salt Lake Center
Thu 03:47:56 PM 38.6717 -114.4442 257° West 431 496 38,000  Level Salt Lake Center
Thu 03:48:58 PM 38.6381 -114.6231 257° West 431 496 38,000  Level Salt Lake Center
Thu 03:50:00 PM 38.6089 -114.7728 256° West 434 499 38,000  Level Salt Lake Center
Thu 03:51:02 PM 38.5808 -114.9203 256° West 432 497 38,000  Level Salt Lake Center
Thu 03:52:04 PM 38.5528 -115.0686 256° West 430 495 38,000  Level Salt Lake Center
Thu 03:53:06 PM 38.5244 -115.2158 256° West 430 495 38,000  Level Salt Lake Center
Thu 03:54:08 PM 38.4917 -115.3875 256° West 432 497 38,000  Level Salt Lake Center
Thu 03:55:10 PM 38.4631 -115.5375 256° West 435 501 38,000  Level Salt Lake Center
Thu 03:56:12 PM 38.4333 -115.6875 256° West 436 502 38,000  Level Salt Lake Center
Thu 03:57:14 PM 38.4044 -115.8369 256° West 436 502 38,000  Level Salt Lake Center
Thu 03:58:16 PM 38.3742 -115.9881 256° West 438 504 38,000  Level Salt Lake Center
Thu 03:59:17 PM 38.3433 -116.1369 255° West 436 502 38,000  Level Salt Lake Center
Thu 04:00:19 PM 38.3083 -116.3153 256° West 434 499 38,000  Level Salt Lake Center
Thu 04:01:21 PM 38.2778 -116.4631 255° West 433 498 38,000  Level Salt Lake Center
Thu 04:02:32 PM 38.2408 -116.6406 255° West 430 495 38,000  Level Oakland Center
Thu 04:03:33 PM 38.2103 -116.7886 255° West 432 497 38,000  Level Oakland Center
Thu 04:04:27 PM 38.1864 -116.9078 256° West 433 498 38,000  Level Salt Lake Center
Thu 04:05:29 PM 38.1558 -117.0550 255° West 432 497 38,000  Level Salt Lake Center
Thu 04:06:31 PM 38.1244 -117.2064 255° West 438 504 38,000  Level Salt Lake Center
Thu 04:07:33 PM 38.0872 -117.3775 255° West 455 524 38,000  Level Salt Lake Center
Thu 04:08:35 PM 38.0567 -117.5258 255° West 438 504 38,000  Level Salt Lake Center
Thu 04:09:42 PM 38.0169 -117.7064 254° West 439 505 38,000  Level Oakland Center
Thu 04:10:44 PM 37.9947 -117.8569 259° West 436 502 38,000  Level Oakland Center
Thu 04:11:45 PM 37.9778 -118.0100 262° West 439 505 38,000  Level Oakland Center
Thu 04:12:47 PM 37.9628 -118.1622 263° West 436 502 38,000  Level Oakland Center
Thu 04:13:48 PM 37.9456 -118.3133 262° West 434 499 38,000  Level Oakland Center
Thu 04:14:49 PM 37.9283 -118.4644 262° West 432 497 38,000  Level Oakland Center
Thu 04:15:51 PM 37.9128 -118.6164 263° West 434 499 38,000  Level Oakland Center
Thu 04:16:52 PM 37.8911 -118.8019 262° West 441 507 38,000  Level Oakland Center
Thu 04:17:54 PM 37.8750 -118.9464 262° West 442 509 38,000  Level Oakland Center
Thu 04:18:55 PM 37.8586 -119.0969 262° West 441 507 38,000  Level Oakland Center
Thu 04:19:57 PM 37.8392 -119.2514 261° West 442 509 38,000  Level Oakland Center
Thu 04:20:58 PM 37.8214 -119.4028 262° West 438 504 38,000 -98 Level Oakland Center
Thu 04:22:00 PM 37.8036 -119.5542 262° West 436 502 37,800 -683 Descending Oakland Center
Thu 04:23:01 PM 37.7811 -119.7364 261° West 437 503 36,600 -1,024 Descending Oakland Center
Thu 04:24:03 PM 37.7628 -119.8883 261° West 436 502 35,700 -927 Descending Oakland Center
Thu 04:25:04 PM 37.7442 -120.0411 261° West 440 506 34,700 -1,033 Descending Oakland Center
Thu 04:26:05 PM 37.7261 -120.1944 262° West 441 507 33,600 -1,756 Descending Oakland Center
Thu 04:27:07 PM 37.7058 -120.3489 261° West 442 509 31,100 -2,341 Descending Oakland Center
Thu 04:28:08 PM 37.6869 -120.4969 261° West 431 496 28,800 -2,281 Descending Oakland Center
Thu 04:29:08 PM 37.6667 -120.6667 261° West 418 481 26,500 -2,895 Descending Northern Cal TRACON
Thu 04:30:02 PM 37.6500 -120.7833 260° West 412 474 23,300 -2,750 Descending Northern Cal TRACON
Thu 04:31:08 PM 37.6333 -120.9333 262° West 385 443 21,000 -2,100 Descending Northern Cal TRACON
Thu 04:32:02 PM 37.6167 -121.0500 260° West 373 429 19,100 -1,950 Descending Northern Cal TRACON
Thu 04:33:08 PM 37.6000 -121.1833 261° West 371 427 17,100 -1,900 Descending Northern Cal TRACON
Thu 04:34:02 PM 37.5833 -121.3000 260° West 355 409 15,300 -2,000 Descending Northern Cal TRACON
Thu 04:35:02 PM 37.5833 -121.4167 270° West 349 402 13,300 -1,905 Descending Northern Cal TRACON
Thu 04:36:08 PM 37.5667 -121.5500 261° West 338 389 11,300 -1,143 Descending Northern Cal TRACON
Thu 04:37:08 PM 37.5500 -121.6500 258° West 302 348 10,900 -150 Descending Northern Cal TRACON
Thu 04:38:08 PM 37.5833 -121.7333 297° West 248 285 11,000 -250 Climbing Northern Cal TRACON
Thu 04:39:08 PM 37.6000 -121.8167 284° West 255 293 10,400 -895 Descending Northern Cal TRACON
Thu 04:40:02 PM 37.5333 -121.8333 191° South 241 277 9,300 -950 Descending Northern Cal TRACON
Thu 04:41:08 PM 37.4667 -121.8500 191° South 214 246 8,500 -667 Descending Northern Cal TRACON
Thu 04:42:08 PM 37.4500 -121.9167 253° West 212 244 7,900 -600 Descending Northern Cal TRACON
Thu 04:43:08 PM 37.4833 -121.9833 302° West 207 238 7,300 -947 Descending Northern Cal TRACON
Thu 04:44:02 PM 37.5000 -122.0333 293° West 203 234 6,100 -1,105 Descending Northern Cal TRACON
Thu 04:45:02 PM 37.5333 -122.0833 310° West 179 206 5,200 -1,238 Descending Northern Cal TRACON
Thu 04:46:08 PM 37.5500 -122.1500 288° West 171 197 3,500 -1,300 Descending Northern Cal TRACON
Thu 04:47:02 PM 37.5667 -122.2000 293° West 157 181 2,600 -950 Descending Northern Cal TRACON
Thu 04:48:08 PM 37.5833 -122.2500 293° West 144 166 1,600 -762 Descending Northern Cal TRACON
Thu 04:49:08 PM 37.5833 -122.3000 270° West 132 152 1,000 -650 Descending Northern Cal TRACON
Thu 04:50:08 PM 37.6000 -122.3333 302° West 129 148 300 -700 Descending Northern Cal TRACON
Thu 04:52:00 PM 37.6167 -122.3667 322° Northwest  Level FlightAware Approximate
Thu 04:59:00 PM 37.6191 -122.3752 322° Northwest  Level Estimated

Login

Don't have an account? Register now (free) for customized features, flight alerts, and more!